sensor_id;sensor_type;location;lat;lon;timestamp;pressure;altitude;pressure_sealevel;temperature
43292;BMP280;28754;47.700;7.924;2023-02-01T00:02:10;92140.75;;;2.84
43292;BMP280;28754;47.700;7.924;2023-02-01T00:04:57;92140.41;;;2.87
43292;BMP280;28754;47.700;7.924;2023-02-01T00:07:47;92129.50;;;2.87
43292;BMP280;28754;47.700;7.924;2023-02-01T00:10:35;92131.81;;;2.88
43292;BMP280;28754;47.700;7.924;2023-02-01T00:13:22;92128.34;;;2.89
43292;BMP280;28754;47.700;7.924;2023-02-01T00:16:16;92133.41;;;2.89
43292;BMP280;28754;47.700;7.924;2023-02-01T00:19:15;92129.13;;;2.90
43292;BMP280;28754;47.700;7.924;2023-02-01T00:22:01;92116.28;;;2.91
43292;BMP280;28754;47.700;7.924;2023-02-01T00:24:48;92116.28;;;2.91
43292;BMP280;28754;47.700;7.924;2023-02-01T00:27:35;92082.81;;;2.89
43292;BMP280;28754;47.700;7.924;2023-02-01T00:30:21;92106.94;;;2.85
43292;BMP280;28754;47.700;7.924;2023-02-01T00:33:08;92111.81;;;2.80
43292;BMP280;28754;47.700;7.924;2023-02-01T00:36:04;92104.00;;;2.82
43292;BMP280;28754;47.700;7.924;2023-02-01T00:38:51;92125.41;;;2.79
43292;BMP280;28754;47.700;7.924;2023-02-01T00:41:38;92098.34;;;2.80
43292;BMP280;28754;47.700;7.924;2023-02-01T00:44:26;92114.50;;;2.79
43292;BMP280;28754;47.700;7.924;2023-02-01T00:47:13;92082.41;;;2.79
43292;BMP280;28754;47.700;7.924;2023-02-01T00:50:00;92103.03;;;2.76
43292;BMP280;28754;47.700;7.924;2023-02-01T00:52:47;92101.09;;;2.78
43292;BMP280;28754;47.700;7.924;2023-02-01T00:55:34;92093.88;;;2.75
43292;BMP280;28754;47.700;7.924;2023-02-01T00:58:21;92094.09;;;2.74
43292;BMP280;28754;47.700;7.924;2023-02-01T01:01:18;92078.13;;;2.73
43292;BMP280;28754;47.700;7.924;2023-02-01T01:04:05;92080.47;;;2.69
43292;BMP280;28754;47.700;7.924;2023-02-01T01:06:52;92082.81;;;2.64
43292;BMP280;28754;47.700;7.924;2023-02-01T01:09:38;92081.63;;;2.60
43292;BMP280;28754;47.700;7.924;2023-02-01T01:12:25;92078.53;;;2.58
43292;BMP280;28754;47.700;7.924;2023-02-01T01:15:12;92076.97;;;2.57
43292;BMP280;28754;47.700;7.924;2023-02-01T01:17:59;92079.09;;;2.53
43292;BMP280;28754;47.700;7.924;2023-02-01T01:20:47;92081.44;;;2.55
43292;BMP280;28754;47.700;7.924;2023-02-01T01:23:35;92072.28;;;2.54
43292;BMP280;28754;47.700;7.924;2023-02-01T01:26:26;92073.88;;;2.55
43292;BMP280;28754;47.700;7.924;2023-02-01T01:29:13;92077.34;;;2.54
43292;BMP280;28754;47.700;7.924;2023-02-01T01:31:59;92073.28;;;2.53
43292;BMP280;28754;47.700;7.924;2023-02-01T01:34:46;92072.09;;;2.49
43292;BMP280;28754;47.700;7.924;2023-02-01T01:37:33;92069.56;;;2.49
43292;BMP280;28754;47.700;7.924;2023-02-01T01:40:21;92072.50;;;2.46
43292;BMP280;28754;47.700;7.924;2023-02-01T01:43:17;92083.97;;;2.42
43292;BMP280;28754;47.700;7.924;2023-02-01T01:46:06;92083.56;;;2.38
43292;BMP280;28754;47.700;7.924;2023-02-01T01:49:22;92087.84;;;2.38
43292;BMP280;28754;47.700;7.924;2023-02-01T01:52:10;92079.66;;;2.36
43292;BMP280;28754;47.700;7.924;2023-02-01T01:54:59;92079.06;;;2.34
43292;BMP280;28754;47.700;7.924;2023-02-01T01:58:07;92084.31;;;2.33
43292;BMP280;28754;47.700;7.924;2023-02-01T02:00:55;92071.09;;;2.31
43292;BMP280;28754;47.700;7.924;2023-02-01T02:03:47;92060.22;;;2.30
43292;BMP280;28754;47.700;7.924;2023-02-01T02:07:00;92066.44;;;2.28
43292;BMP280;28754;47.700;7.924;2023-02-01T02:09:49;92072.25;;;2.28
43292;BMP280;28754;47.700;7.924;2023-02-01T02:12:39;92065.25;;;2.30
43292;BMP280;28754;47.700;7.924;2023-02-01T02:15:27;92077.53;;;2.27
43292;BMP280;28754;47.700;7.924;2023-02-01T02:18:33;92059.03;;;2.26
43292;BMP280;28754;47.700;7.924;2023-02-01T02:32:31;92062.38;;;2.27
43292;BMP280;28754;47.700;7.924;2023-02-01T02:39:23;92056.13;;;2.29
43292;BMP280;28754;47.700;7.924;2023-02-01T02:42:29;92049.31;;;2.30
43292;BMP280;28754;47.700;7.924;2023-02-01T02:45:44;92040.00;;;2.30
43292;BMP280;28754;47.700;7.924;2023-02-01T02:49:12;92040.00;;;2.30
43292;BMP280;28754;47.700;7.924;2023-02-01T02:52:10;92038.06;;;2.32
43292;BMP280;28754;47.700;7.924;2023-02-01T02:55:18;92053.81;;;2.34
43292;BMP280;28754;47.700;7.924;2023-02-01T02:58:08;92042.53;;;2.30
43292;BMP280;28754;47.700;7.924;2023-02-01T03:01:15;92044.09;;;2.31
43292;BMP280;28754;47.700;7.924;2023-02-01T03:04:20;92032.59;;;2.29
43292;BMP280;28754;47.700;7.924;2023-02-01T03:11:06;92038.81;;;2.26
43292;BMP280;28754;47.700;7.924;2023-02-01T03:13:58;92031.81;;;2.22
43292;BMP280;28754;47.700;7.924;2023-02-01T03:17:04;92028.91;;;2.18
43292;BMP280;28754;47.700;7.924;2023-02-01T03:19:55;92045.44;;;2.21
43292;BMP280;28754;47.700;7.924;2023-02-01T03:22:49;92038.22;;;2.18
43292;BMP280;28754;47.700;7.924;2023-02-01T03:25:39;92032.22;;;2.19
43292;BMP280;28754;47.700;7.924;2023-02-01T03:28:31;92026.19;;;2.20
43292;BMP280;28754;47.700;7.924;2023-02-01T03:31:19;92020.94;;;2.21
43292;BMP280;28754;47.700;7.924;2023-02-01T03:34:06;92024.44;;;2.20
43292;BMP280;28754;47.700;7.924;2023-02-01T03:37:04;92024.44;;;2.20
43292;BMP280;28754;47.700;7.924;2023-02-01T03:40:01;92023.47;;;2.21
43292;BMP280;28754;47.700;7.924;2023-02-01T03:42:55;92033.38;;;2.23
43292;BMP280;28754;47.700;7.924;2023-02-01T03:45:50;92021.72;;;2.22
43292;BMP280;28754;47.700;7.924;2023-02-01T03:48:40;92027.53;;;2.22
43292;BMP280;28754;47.700;7.924;2023-02-01T03:51:28;92012.78;;;2.19
43292;BMP280;28754;47.700;7.924;2023-02-01T03:54:17;92013.19;;;2.23
43292;BMP280;28754;47.700;7.924;2023-02-01T03:57:10;92016.66;;;2.22
43292;BMP280;28754;47.700;7.924;2023-02-01T04:03:06;92029.28;;;2.15
43292;BMP280;28754;47.700;7.924;2023-02-01T04:05:54;92041.91;;;2.15
43292;BMP280;28754;47.700;7.924;2023-02-01T04:08:45;92038.63;;;2.15
43292;BMP280;28754;47.700;7.924;2023-02-01T04:11:32;92033.75;;;2.13
43292;BMP280;28754;47.700;7.924;2023-02-01T04:14:19;92026.97;;;2.07
43292;BMP280;28754;47.700;7.924;2023-02-01T04:17:05;92041.72;;;2.04
43292;BMP280;28754;47.700;7.924;2023-02-01T04:19:52;92025.97;;;2.02
43292;BMP280;28754;47.700;7.924;2023-02-01T04:22:39;92033.72;;;2.01
43292;BMP280;28754;47.700;7.924;2023-02-01T04:25:26;92053.94;;;2.01
43292;BMP280;28754;47.700;7.924;2023-02-01T04:28:12;92053.16;;;2.00
43292;BMP280;28754;47.700;7.924;2023-02-01T04:30:59;92052.19;;;2.01
43292;BMP280;28754;47.700;7.924;2023-02-01T04:33:46;92058.41;;;2.05
43292;BMP280;28754;47.700;7.924;2023-02-01T04:36:32;92054.16;;;2.05
43292;BMP280;28754;47.700;7.924;2023-02-01T04:39:19;92059.81;;;2.07
43292;BMP280;28754;47.700;7.924;2023-02-01T04:42:06;92060.94;;;2.05
43292;BMP280;28754;47.700;7.924;2023-02-01T04:44:53;92080.00;;;2.07
43292;BMP280;28754;47.700;7.924;2023-02-01T04:47:39;92063.28;;;2.06
43292;BMP280;28754;47.700;7.924;2023-02-01T04:50:26;92069.91;;;2.07
43292;BMP280;28754;47.700;7.924;2023-02-01T04:53:14;92053.34;;;2.05
43292;BMP280;28754;47.700;7.924;2023-02-01T04:56:02;92042.13;;;2.07
43292;BMP280;28754;47.700;7.924;2023-02-01T04:58:48;92027.91;;;2.06
43292;BMP280;28754;47.700;7.924;2023-02-01T05:01:35;92025.97;;;2.08
43292;BMP280;28754;47.700;7.924;2023-02-01T05:04:22;92030.63;;;2.11
43292;BMP280;28754;47.700;7.924;2023-02-01T05:07:09;92013.94;;;2.10
43292;BMP280;28754;47.700;7.924;2023-02-01T05:09:55;92023.44;;;2.08
43292;BMP280;28754;47.700;7.924;2023-02-01T05:12:44;92034.91;;;2.11
43292;BMP280;28754;47.700;7.924;2023-02-01T05:15:50;92023.44;;;2.08
43292;BMP280;28754;47.700;7.924;2023-02-01T05:18:37;92010.81;;;2.08
43292;BMP280;28754;47.700;7.924;2023-02-01T05:21:25;92006.75;;;2.07
43292;BMP280;28754;47.700;7.924;2023-02-01T05:24:11;92013.75;;;2.05
43292;BMP280;28754;47.700;7.924;2023-02-01T05:27:06;92029.47;;;2.07
43292;BMP280;28754;47.700;7.924;2023-02-01T05:29:52;92039.97;;;2.11
43292;BMP280;28754;47.700;7.924;2023-02-01T05:32:39;92039.97;;;2.11
43292;BMP280;28754;47.700;7.924;2023-02-01T05:35:26;92046.78;;;2.10
43292;BMP280;28754;47.700;7.924;2023-02-01T05:38:13;92048.72;;;2.08
43292;BMP280;28754;47.700;7.924;2023-02-01T05:40:59;92046.56;;;2.05
43292;BMP280;28754;47.700;7.924;2023-02-01T05:43:46;92042.28;;;2.00
43292;BMP280;28754;47.700;7.924;2023-02-01T05:46:35;92028.09;;;1.99
43292;BMP280;28754;47.700;7.924;2023-02-01T05:49:22;92017.97;;;1.99
43292;BMP280;28754;47.700;7.924;2023-02-01T05:52:08;92021.28;;;1.93
43292;BMP280;28754;47.700;7.924;2023-02-01T05:54:55;92007.28;;;1.97
43292;BMP280;28754;47.700;7.924;2023-02-01T05:57:42;92068.69;;;1.97
43292;BMP280;28754;47.700;7.924;2023-02-01T06:00:29;92064.22;;;1.93
43292;BMP280;28754;47.700;7.924;2023-02-01T06:03:16;92065.94;;;1.86
43292;BMP280;28754;47.700;7.924;2023-02-01T06:06:04;92066.13;;;1.84
43292;BMP280;28754;47.700;7.924;2023-02-01T06:08:50;92069.03;;;1.81
43292;BMP280;28754;47.700;7.924;2023-02-01T06:11:37;92063.19;;;1.81
43292;BMP280;28754;47.700;7.924;2023-02-01T06:14:27;92067.50;;;1.87
43292;BMP280;28754;47.700;7.924;2023-02-01T06:17:14;92067.31;;;1.88
43292;BMP280;28754;47.700;7.924;2023-02-01T06:20:01;92070.03;;;1.87
43292;BMP280;28754;47.700;7.924;2023-02-01T06:22:47;92074.50;;;1.91
43292;BMP280;28754;47.700;7.924;2023-02-01T06:25:34;92071.00;;;1.92
43292;BMP280;28754;47.700;7.924;2023-02-01T06:28:21;92070.22;;;1.92
43292;BMP280;28754;47.700;7.924;2023-02-01T06:31:11;92069.06;;;1.94
43292;BMP280;28754;47.700;7.924;2023-02-01T06:33:59;92074.72;;;1.96
43292;BMP280;28754;47.700;7.924;2023-02-01T06:36:46;92075.13;;;2.00
43292;BMP280;28754;47.700;7.924;2023-02-01T06:39:32;92075.72;;;2.02
43292;BMP280;28754;47.700;7.924;2023-02-01T06:42:19;92091.63;;;2.02
43292;BMP280;28754;47.700;7.924;2023-02-01T06:45:07;92093.19;;;2.03
43292;BMP280;28754;47.700;7.924;2023-02-01T06:47:54;92093.19;;;2.03
43292;BMP280;28754;47.700;7.924;2023-02-01T06:50:41;92089.31;;;2.07
43292;BMP280;28754;47.700;7.924;2023-02-01T06:53:28;92097.47;;;2.09
43292;BMP280;28754;47.700;7.924;2023-02-01T06:56:14;92108.56;;;2.08
43292;BMP280;28754;47.700;7.924;2023-02-01T06:59:04;92110.31;;;2.07
43292;BMP280;28754;47.700;7.924;2023-02-01T07:01:51;92118.84;;;2.06
43292;BMP280;28754;47.700;7.924;2023-02-01T07:04:38;92131.09;;;2.09
43292;BMP280;28754;47.700;7.924;2023-02-01T07:07:25;92138.47;;;2.11
43292;BMP280;28754;47.700;7.924;2023-02-01T07:10:12;92135.19;;;2.10
43292;BMP280;28754;47.700;7.924;2023-02-01T07:12:59;92144.88;;;2.07
43292;BMP280;28754;47.700;7.924;2023-02-01T07:15:46;92140.63;;;2.07
43292;BMP280;28754;47.700;7.924;2023-02-01T07:18:34;92130.31;;;2.09
43292;BMP280;28754;47.700;7.924;2023-02-01T07:21:20;92125.84;;;2.11
43292;BMP280;28754;47.700;7.924;2023-02-01T07:24:07;92117.91;;;2.14
43292;BMP280;28754;47.700;7.924;2023-02-01T07:26:54;92120.81;;;2.17
43292;BMP280;28754;47.700;7.924;2023-02-01T07:29:41;92121.41;;;2.19
43292;BMP280;28754;47.700;7.924;2023-02-01T07:32:29;92124.53;;;2.21
43292;BMP280;28754;47.700;7.924;2023-02-01T07:35:16;92131.94;;;2.23
43292;BMP280;28754;47.700;7.924;2023-02-01T07:38:03;92124.13;;;2.24
43292;BMP280;28754;47.700;7.924;2023-02-01T07:40:50;92128.25;;;2.25
43292;BMP280;28754;47.700;7.924;2023-02-01T07:43:37;92124.72;;;2.26
43292;BMP280;28754;47.700;7.924;2023-02-01T07:46:23;92113.44;;;2.22
43292;BMP280;28754;47.700;7.924;2023-02-01T07:49:10;92122.78;;;2.22
43292;BMP280;28754;47.700;7.924;2023-02-01T07:51:58;92115.97;;;2.22
43292;BMP280;28754;47.700;7.924;2023-02-01T07:54:45;92123.97;;;2.26
43292;BMP280;28754;47.700;7.924;2023-02-01T07:57:32;92135.44;;;2.28
43292;BMP280;28754;47.700;7.924;2023-02-01T08:00:19;92129.41;;;2.29
43292;BMP280;28754;47.700;7.924;2023-02-01T08:03:24;92128.63;;;2.29
43292;BMP280;28754;47.700;7.924;2023-02-01T08:06:11;92141.06;;;2.30
43292;BMP280;28754;47.700;7.924;2023-02-01T08:08:58;92139.72;;;2.34
43292;BMP280;28754;47.700;7.924;2023-02-01T08:11:45;92140.31;;;2.36
43292;BMP280;28754;47.700;7.924;2023-02-01T08:14:32;92135.47;;;2.41
43292;BMP280;28754;47.700;7.924;2023-02-01T08:17:20;92133.72;;;2.48
43292;BMP280;28754;47.700;7.924;2023-02-01T08:20:07;92145.00;;;2.52
43292;BMP280;28754;47.700;7.924;2023-02-01T08:22:55;92151.44;;;2.54
43292;BMP280;28754;47.700;7.924;2023-02-01T08:25:42;92151.84;;;2.58
43292;BMP280;28754;47.700;7.924;2023-02-01T08:28:29;92153.38;;;2.59
43292;BMP280;28754;47.700;7.924;2023-02-01T08:31:19;92142.31;;;2.60
43292;BMP280;28754;47.700;7.924;2023-02-01T08:34:08;92138.44;;;2.64
43292;BMP280;28754;47.700;7.924;2023-02-01T08:36:55;92134.56;;;2.68
43292;BMP280;28754;47.700;7.924;2023-02-01T08:39:45;92135.69;;;2.72
43292;BMP280;28754;47.700;7.924;2023-02-01T08:42:32;92145.44;;;2.74
43292;BMP280;28754;47.700;7.924;2023-02-01T08:45:40;92150.50;;;2.74
43292;BMP280;28754;47.700;7.924;2023-02-01T08:48:27;92144.47;;;2.75
43292;BMP280;28754;47.700;7.924;2023-02-01T08:51:17;92129.69;;;2.72
43292;BMP280;28754;47.700;7.924;2023-02-01T08:54:04;92155.94;;;2.72
43292;BMP280;28754;47.700;7.924;2023-02-01T08:56:51;92150.09;;;2.71
43292;BMP280;28754;47.700;7.924;2023-02-01T08:59:40;92139.03;;;2.72
43292;BMP280;28754;47.700;7.924;2023-02-01T09:02:27;92154.78;;;2.74
43292;BMP280;28754;47.700;7.924;2023-02-01T09:05:14;92167.22;;;2.75
43292;BMP280;28754;47.700;7.924;2023-02-01T09:08:03;92161.78;;;2.78
43292;BMP280;28754;47.700;7.924;2023-02-01T09:10:50;92164.09;;;2.80
43292;BMP280;28754;47.700;7.924;2023-02-01T09:13:36;92180.09;;;2.80
43292;BMP280;28754;47.700;7.924;2023-02-01T09:16:23;92169.38;;;2.78
43292;BMP280;28754;47.700;7.924;2023-02-01T09:19:10;92165.88;;;2.79
43292;BMP280;28754;47.700;7.924;2023-02-01T09:21:57;92183.56;;;2.79
43292;BMP280;28754;47.700;7.924;2023-02-01T09:24:44;92194.28;;;2.81
43292;BMP280;28754;47.700;7.924;2023-02-01T09:27:31;92202.06;;;2.80
43292;BMP280;28754;47.700;7.924;2023-02-01T09:30:18;92199.50;;;2.80
43292;BMP280;28754;47.700;7.924;2023-02-01T09:33:05;92201.88;;;2.81
43292;BMP280;28754;47.700;7.924;2023-02-01T09:36:01;92192.72;;;2.80
43292;BMP280;28754;47.700;7.924;2023-02-01T09:38:48;92196.41;;;2.78
43292;BMP280;28754;47.700;7.924;2023-02-01T09:45:24;92193.31;;;2.82
43292;BMP280;28754;47.700;7.924;2023-02-01T09:48:25;92191.34;;;2.84
43292;BMP280;28754;47.700;7.924;2023-02-01T09:51:43;92153.81;;;2.81
43292;BMP280;28754;47.700;7.924;2023-02-01T09:54:52;92175.03;;;2.93
43292;BMP280;28754;47.700;7.924;2023-02-01T09:57:50;92184.00;;;2.96
43292;BMP280;28754;47.700;7.924;2023-02-01T10:00:47;92177.75;;;2.98
43292;BMP280;28754;47.700;7.924;2023-02-01T10:03:37;92185.94;;;3.00
43292;BMP280;28754;47.700;7.924;2023-02-01T10:06:42;92185.94;;;3.00
43292;BMP280;28754;47.700;7.924;2023-02-01T10:10:01;92183.41;;;3.00
43292;BMP280;28754;47.700;7.924;2023-02-01T10:16:19;92187.88;;;3.05
43292;BMP280;28754;47.700;7.924;2023-02-01T10:22:09;92184.97;;;3.07
43292;BMP280;28754;47.700;7.924;2023-02-01T10:28:01;92186.72;;;3.07
43292;BMP280;28754;47.700;7.924;2023-02-01T10:30:49;92179.13;;;3.07
43292;BMP280;28754;47.700;7.924;2023-02-01T10:33:48;92181.66;;;3.07
43292;BMP280;28754;47.700;7.924;2023-02-01T10:36:41;92183.22;;;3.08
43292;BMP280;28754;47.700;7.924;2023-02-01T10:39:28;92181.47;;;3.15
43292;BMP280;28754;47.700;7.924;2023-02-01T10:42:21;92169.78;;;3.14
43292;BMP280;28754;47.700;7.924;2023-02-01T10:45:19;92186.72;;;3.13
43292;BMP280;28754;47.700;7.924;2023-02-01T10:48:08;92188.66;;;3.18
43292;BMP280;28754;47.700;7.924;2023-02-01T10:51:14;92170.59;;;3.21
43292;BMP280;28754;47.700;7.924;2023-02-01T10:54:16;92175.66;;;3.21
43292;BMP280;28754;47.700;7.924;2023-02-01T10:57:21;92171.13;;;3.16
43292;BMP280;28754;47.700;7.924;2023-02-01T11:00:20;92179.13;;;3.13
43292;BMP280;28754;47.700;7.924;2023-02-01T11:06:33;92176.19;;;3.10
43292;BMP280;28754;47.700;7.924;2023-02-01T11:09:25;92177.38;;;3.07
43292;BMP280;28754;47.700;7.924;2023-02-01T11:12:37;92170.00;;;3.06
43292;BMP280;28754;47.700;7.924;2023-02-01T11:15:26;92177.38;;;3.07
43292;BMP280;28754;47.700;7.924;2023-02-01T11:18:20;92185.53;;;3.03
43292;BMP280;28754;47.700;7.924;2023-02-01T11:21:11;92175.44;;;3.03
43292;BMP280;28754;47.700;7.924;2023-02-01T11:24:06;92162.78;;;3.09
43292;BMP280;28754;47.700;7.924;2023-02-01T11:26:58;92179.53;;;3.17
43292;BMP280;28754;47.700;7.924;2023-02-01T11:29:50;92165.31;;;3.22
43292;BMP280;28754;47.700;7.924;2023-02-01T11:32:38;92162.41;;;3.25
43292;BMP280;28754;47.700;7.924;2023-02-01T11:35:28;92159.28;;;3.30
43292;BMP280;28754;47.700;7.924;2023-02-01T11:38:31;92133.16;;;3.29
43292;BMP280;28754;47.700;7.924;2023-02-01T11:41:26;92156.16;;;3.28
43292;BMP280;28754;47.700;7.924;2023-02-01T11:44:35;92159.28;;;3.30
43292;BMP280;28754;47.700;7.924;2023-02-01T11:47:26;92147.81;;;3.27
43292;BMP280;28754;47.700;7.924;2023-02-01T11:56:50;92143.13;;;3.24
43292;BMP280;28754;47.700;7.924;2023-02-01T12:09:34;92115.69;;;3.28
43292;BMP280;28754;47.700;7.924;2023-02-01T12:13:52;92116.63;;;3.27
43292;BMP280;28754;47.700;7.924;2023-02-01T12:33:11;92102.78;;;3.36
43292;BMP280;28754;47.700;7.924;2023-02-01T12:42:59;92088.97;;;3.44
43292;BMP280;28754;47.700;7.924;2023-02-01T12:46:19;92089.91;;;3.50
43292;BMP280;28754;47.700;7.924;2023-02-01T12:49:36;92084.09;;;3.49
43292;BMP280;28754;47.700;7.924;2023-02-01T12:52:39;92099.28;;;3.49
43292;BMP280;28754;47.700;7.924;2023-02-01T12:55:43;92085.84;;;3.49
43292;BMP280;28754;47.700;7.924;2023-02-01T13:06:48;92084.69;;;3.39
43292;BMP280;28754;47.700;7.924;2023-02-01T13:09:54;92088.56;;;3.41
43292;BMP280;28754;47.700;7.924;2023-02-01T13:16:13;92067.16;;;3.43
43292;BMP280;28754;47.700;7.924;2023-02-01T13:22:46;92058.03;;;3.36
43292;BMP280;28754;47.700;7.924;2023-02-01T13:26:02;92072.25;;;3.31
43292;BMP280;28754;47.700;7.924;2023-02-01T13:29:00;92059.59;;;3.31
43292;BMP280;28754;47.700;7.924;2023-02-01T13:34:59;92055.84;;;3.40
43292;BMP280;28754;47.700;7.924;2023-02-01T13:38:14;92058.81;;;3.37
43292;BMP280;28754;47.700;7.924;2023-02-01T13:44:26;92068.53;;;3.27
43292;BMP280;28754;47.700;7.924;2023-02-01T13:47:43;92055.50;;;3.30
43292;BMP280;28754;47.700;7.924;2023-02-01T13:50:38;92052.41;;;3.28
43292;BMP280;28754;47.700;7.924;2023-02-01T13:53:35;92066.00;;;3.27
43292;BMP280;28754;47.700;7.924;2023-02-01T13:56:25;92052.59;;;3.26
43292;BMP280;28754;47.700;7.924;2023-02-01T14:02:47;92055.31;;;3.25
43292;BMP280;28754;47.700;7.924;2023-02-01T14:08:40;92074.78;;;3.18
43292;BMP280;28754;47.700;7.924;2023-02-01T14:11:38;92075.97;;;3.22
43292;BMP280;28754;47.700;7.924;2023-02-01T14:20:43;92070.13;;;3.28
43292;BMP280;28754;47.700;7.924;2023-02-01T14:23:55;92090.75;;;3.25
43292;BMP280;28754;47.700;7.924;2023-02-01T14:26:47;92069.34;;;3.21
43292;BMP280;28754;47.700;7.924;2023-02-01T14:29:42;92074.97;;;3.23
43292;BMP280;28754;47.700;7.924;2023-02-01T14:32:37;92080.44;;;3.20
43292;BMP280;28754;47.700;7.924;2023-02-01T14:35:28;92080.44;;;3.20
43292;BMP280;28754;47.700;7.924;2023-02-01T14:38:15;92078.91;;;3.19
43292;BMP280;28754;47.700;7.924;2023-02-01T14:41:25;92107.31;;;3.21
43292;BMP280;28754;47.700;7.924;2023-02-01T14:44:24;92093.88;;;3.20
43292;BMP280;28754;47.700;7.924;2023-02-01T14:50:12;92098.91;;;3.20
43292;BMP280;28754;47.700;7.924;2023-02-01T14:59:01;92107.50;;;3.19
43292;BMP280;28754;47.700;7.924;2023-02-01T15:01:57;92100.88;;;3.18
43292;BMP280;28754;47.700;7.924;2023-02-01T15:04:45;92100.88;;;3.18
43292;BMP280;28754;47.700;7.924;2023-02-01T15:07:32;92096.97;;;3.16
43292;BMP280;28754;47.700;7.924;2023-02-01T15:10:20;92090.38;;;3.15
43292;BMP280;28754;47.700;7.924;2023-02-01T15:13:20;92093.28;;;3.12
43292;BMP280;28754;47.700;7.924;2023-02-01T15:16:14;92090.97;;;3.04
43292;BMP280;28754;47.700;7.924;2023-02-01T15:19:12;92095.63;;;3.07
43292;BMP280;28754;47.700;7.924;2023-02-01T15:22:00;92109.28;;;3.06
43292;BMP280;28754;47.700;7.924;2023-02-01T15:24:59;92109.84;;;3.08
43292;BMP280;28754;47.700;7.924;2023-02-01T15:27:46;92113.16;;;3.08
43292;BMP280;28754;47.700;7.924;2023-02-01T15:30:35;92103.81;;;3.09
43292;BMP280;28754;47.700;7.924;2023-02-01T15:33:22;92101.47;;;3.07
43292;BMP280;28754;47.700;7.924;2023-02-01T15:36:18;92109.47;;;3.05
43292;BMP280;28754;47.700;7.924;2023-02-01T15:42:13;92129.13;;;3.09
43292;BMP280;28754;47.700;7.924;2023-02-01T15:45:17;92126.75;;;3.07
43292;BMP280;28754;47.700;7.924;2023-02-01T15:48:19;92127.56;;;3.08
43292;BMP280;28754;47.700;7.924;2023-02-01T15:51:14;92117.81;;;3.05
43292;BMP280;28754;47.700;7.924;2023-02-01T15:54:18;92118.41;;;3.07
43292;BMP280;28754;47.700;7.924;2023-02-01T15:57:06;92115.88;;;3.07
43292;BMP280;28754;47.700;7.924;2023-02-01T15:59:53;92133.41;;;3.08
43292;BMP280;28754;47.700;7.924;2023-02-01T16:02:58;92135.34;;;3.07
43292;BMP280;28754;47.700;7.924;2023-02-01T16:05:45;92133.00;;;3.05
43292;BMP280;28754;47.700;7.924;2023-02-01T16:08:33;92131.47;;;3.04
43292;BMP280;28754;47.700;7.924;2023-02-01T16:11:30;92138.84;;;3.06
43292;BMP280;28754;47.700;7.924;2023-02-01T16:14:17;92132.22;;;3.05
43292;BMP280;28754;47.700;7.924;2023-02-01T16:17:03;92128.53;;;3.07
43292;BMP280;28754;47.700;7.924;2023-02-01T16:19:50;92150.72;;;3.05
43292;BMP280;28754;47.700;7.924;2023-02-01T16:22:37;92129.50;;;3.06
43292;BMP280;28754;47.700;7.924;2023-02-01T16:25:24;92132.22;;;3.05
43292;BMP280;28754;47.700;7.924;2023-02-01T16:28:10;92140.78;;;3.04
43292;BMP280;28754;47.700;7.924;2023-02-01T16:30:58;92144.28;;;3.03
43292;BMP280;28754;47.700;7.924;2023-02-01T16:33:48;92141.19;;;3.01
43292;BMP280;28754;47.700;7.924;2023-02-01T16:36:36;92150.13;;;3.03
43292;BMP280;28754;47.700;7.924;2023-02-01T16:39:23;92170.38;;;3.03
43292;BMP280;28754;47.700;7.924;2023-02-01T16:42:12;92150.91;;;3.04
43292;BMP280;28754;47.700;7.924;2023-02-01T16:44:59;92138.47;;;3.02
43292;BMP280;28754;47.700;7.924;2023-02-01T16:47:54;92157.13;;;3.01
43292;BMP280;28754;47.700;7.924;2023-02-01T16:50:48;92165.31;;;3.03
43292;BMP280;28754;47.700;7.924;2023-02-01T16:53:36;92157.53;;;3.05
43292;BMP280;28754;47.700;7.924;2023-02-01T16:56:29;92174.47;;;3.04
43292;BMP280;28754;47.700;7.924;2023-02-01T16:59:17;92164.13;;;3.06
43292;BMP280;28754;47.700;7.924;2023-02-01T17:02:03;92163.34;;;3.05
43292;BMP280;28754;47.700;7.924;2023-02-01T17:04:50;92159.47;;;3.03
43292;BMP280;28754;47.700;7.924;2023-02-01T17:07:39;92167.84;;;3.03
43292;BMP280;28754;47.700;7.924;2023-02-01T17:10:26;92171.94;;;3.04
43292;BMP280;28754;47.700;7.924;2023-02-01T17:13:15;92165.91;;;3.05
43292;BMP280;28754;47.700;7.924;2023-02-01T17:19:17;92172.53;;;3.06
43292;BMP280;28754;47.700;7.924;2023-02-01T17:22:08;92185.19;;;3.06
43292;BMP280;28754;47.700;7.924;2023-02-01T17:24:57;92182.66;;;3.06
43292;BMP280;28754;47.700;7.924;2023-02-01T17:27:44;92190.25;;;3.06
43292;BMP280;28754;47.700;7.924;2023-02-01T17:30:31;92196.25;;;3.05
43292;BMP280;28754;47.700;7.924;2023-02-01T17:33:30;92195.47;;;3.05
43292;BMP280;28754;47.700;7.924;2023-02-01T17:36:17;92193.91;;;3.04
43292;BMP280;28754;47.700;7.924;2023-02-01T17:39:04;92197.25;;;3.04
43292;BMP280;28754;47.700;7.924;2023-02-01T17:41:51;92188.06;;;3.03
43292;BMP280;28754;47.700;7.924;2023-02-01T17:44:37;92171.34;;;3.02
43292;BMP280;28754;47.700;7.924;2023-02-01T17:47:30;92188.47;;;3.00
43292;BMP280;28754;47.700;7.924;2023-02-01T17:50:18;92186.72;;;3.01
43292;BMP280;28754;47.700;7.924;2023-02-01T17:53:05;92181.47;;;3.02
43292;BMP280;28754;47.700;7.924;2023-02-01T17:55:55;92194.91;;;3.03
43292;BMP280;28754;47.700;7.924;2023-02-01T17:58:45;92188.84;;;3.04
43292;BMP280;28754;47.700;7.924;2023-02-01T18:01:32;92182.25;;;3.03
43292;BMP280;28754;47.700;7.924;2023-02-01T18:04:19;92188.47;;;3.00
43292;BMP280;28754;47.700;7.924;2023-02-01T18:07:08;92184.94;;;3.01
43292;BMP280;28754;47.700;7.924;2023-02-01T18:09:54;92185.16;;;3.00
43292;BMP280;28754;47.700;7.924;2023-02-01T18:12:41;92189.44;;;2.99
43292;BMP280;28754;47.700;7.924;2023-02-01T18:15:30;92186.91;;;2.99
43292;BMP280;28754;47.700;7.924;2023-02-01T18:18:17;92185.53;;;2.97
43292;BMP280;28754;47.700;7.924;2023-02-01T18:21:04;92193.72;;;2.99
43292;BMP280;28754;47.700;7.924;2023-02-01T18:23:51;92209.47;;;3.01
43292;BMP280;28754;47.700;7.924;2023-02-01T18:26:37;92187.88;;;2.98
43292;BMP280;28754;47.700;7.924;2023-02-01T18:29:24;92176.59;;;2.94
43292;BMP280;28754;47.700;7.924;2023-02-01T18:32:14;92182.81;;;2.98
43292;BMP280;28754;47.700;7.924;2023-02-01T18:35:01;92222.31;;;2.99
43292;BMP280;28754;47.700;7.924;2023-02-01T18:37:50;92193.53;;;3.00
43292;BMP280;28754;47.700;7.924;2023-02-01T18:40:53;92200.34;;;3.00
43292;BMP280;28754;47.700;7.924;2023-02-01T18:47:22;92186.72;;;2.94
43292;BMP280;28754;47.700;7.924;2023-02-01T18:50:09;92199.56;;;2.99
43292;BMP280;28754;47.700;7.924;2023-02-01T18:52:58;92190.22;;;3.00
43292;BMP280;28754;47.700;7.924;2023-02-01T18:55:49;92202.06;;;2.99